sensor_id;sensor_type;location;lat;lon;timestamp;P1;durP1;ratioP1;P2;durP2;ratioP2
43226;SDS011;28839;52.404;9.808;2023-03-14T00:03:11;2.95;;;1.55;;
43226;SDS011;28839;52.404;9.808;2023-03-14T00:10:06;2.75;;;1.40;;
43226;SDS011;28839;52.404;9.808;2023-03-14T00:17:01;5.87;;;1.48;;
43226;SDS011;28839;52.404;9.808;2023-03-14T00:23:57;3.33;;;1.53;;
43226;SDS011;28839;52.404;9.808;2023-03-14T00:30:50;3.08;;;1.67;;
43226;SDS011;28839;52.404;9.808;2023-03-14T00:37:44;4.57;;;1.50;;
43226;SDS011;28839;52.404;9.808;2023-03-14T00:44:39;6.50;;;1.67;;
43226;SDS011;28839;52.404;9.808;2023-03-14T00:51:33;5.53;;;1.90;;
43226;SDS011;28839;52.404;9.808;2023-03-14T00:58:27;2.87;;;1.50;;
43226;SDS011;28839;52.404;9.808;2023-03-14T01:05:22;4.40;;;2.60;;
43226;SDS011;28839;52.404;9.808;2023-03-14T01:12:16;6.07;;;1.40;;
43226;SDS011;28839;52.404;9.808;2023-03-14T01:19:10;3.35;;;1.37;;
43226;SDS011;28839;52.404;9.808;2023-03-14T01:26:06;3.35;;;1.40;;
43226;SDS011;28839;52.404;9.808;2023-03-14T01:33:01;2.45;;;1.23;;
43226;SDS011;28839;52.404;9.808;2023-03-14T01:39:55;8.52;;;1.77;;
43226;SDS011;28839;52.404;9.808;2023-03-14T01:46:50;2.92;;;1.73;;
43226;SDS011;28839;52.404;9.808;2023-03-14T01:53:44;5.05;;;2.00;;
43226;SDS011;28839;52.404;9.808;2023-03-14T02:00:39;4.72;;;1.95;;
43226;SDS011;28839;52.404;9.808;2023-03-14T02:07:35;3.07;;;1.67;;
43226;SDS011;28839;52.404;9.808;2023-03-14T02:14:34;5.05;;;1.60;;
43226;SDS011;28839;52.404;9.808;2023-03-14T02:21:32;4.32;;;1.52;;
43226;SDS011;28839;52.404;9.808;2023-03-14T02:28:37;5.85;;;1.50;;
43226;SDS011;28839;52.404;9.808;2023-03-14T02:35:32;3.83;;;1.30;;
43226;SDS011;28839;52.404;9.808;2023-03-14T02:42:29;3.72;;;1.45;;
43226;SDS011;28839;52.404;9.808;2023-03-14T02:49:24;6.53;;;2.00;;
43226;SDS011;28839;52.404;9.808;2023-03-14T02:56:19;4.03;;;1.20;;
43226;SDS011;28839;52.404;9.808;2023-03-14T03:03:13;6.83;;;1.37;;
43226;SDS011;28839;52.404;9.808;2023-03-14T03:10:10;3.97;;;1.13;;
43226;SDS011;28839;52.404;9.808;2023-03-14T03:17:04;7.35;;;1.30;;
43226;SDS011;28839;52.404;9.808;2023-03-14T03:23:58;6.68;;;1.65;;
43226;SDS011;28839;52.404;9.808;2023-03-14T03:30:53;3.53;;;1.20;;
43226;SDS011;28839;52.404;9.808;2023-03-14T03:37:47;6.22;;;1.45;;
43226;SDS011;28839;52.404;9.808;2023-03-14T03:44:40;2.92;;;1.10;;
43226;SDS011;28839;52.404;9.808;2023-03-14T03:51:36;6.53;;;1.70;;
43226;SDS011;28839;52.404;9.808;2023-03-14T03:58:29;4.87;;;1.67;;
43226;SDS011;28839;52.404;9.808;2023-03-14T04:05:23;5.07;;;1.48;;
43226;SDS011;28839;52.404;9.808;2023-03-14T04:12:18;5.47;;;1.25;;
43226;SDS011;28839;52.404;9.808;2023-03-14T04:19:12;3.08;;;0.90;;
43226;SDS011;28839;52.404;9.808;2023-03-14T04:26:06;1.25;;;0.68;;
43226;SDS011;28839;52.404;9.808;2023-03-14T04:33:01;2.97;;;0.70;;
43226;SDS011;28839;52.404;9.808;2023-03-14T04:39:55;6.28;;;0.80;;
43226;SDS011;28839;52.404;9.808;2023-03-14T04:46:49;1.62;;;0.70;;
43226;SDS011;28839;52.404;9.808;2023-03-14T04:53:44;2.12;;;0.80;;
43226;SDS011;28839;52.404;9.808;2023-03-14T05:00:38;4.25;;;0.80;;
43226;SDS011;28839;52.404;9.808;2023-03-14T05:07:32;2.90;;;0.68;;
43226;SDS011;28839;52.404;9.808;2023-03-14T05:14:27;1.05;;;0.55;;
43226;SDS011;28839;52.404;9.808;2023-03-14T05:21:21;1.58;;;0.60;;
43226;SDS011;28839;52.404;9.808;2023-03-14T05:28:15;5.00;;;0.75;;
43226;SDS011;28839;52.404;9.808;2023-03-14T05:35:10;1.08;;;0.90;;
43226;SDS011;28839;52.404;9.808;2023-03-14T05:42:04;4.05;;;0.73;;
43226;SDS011;28839;52.404;9.808;2023-03-14T05:48:58;4.20;;;0.85;;
43226;SDS011;28839;52.404;9.808;2023-03-14T05:55:53;8.15;;;1.45;;
43226;SDS011;28839;52.404;9.808;2023-03-14T06:02:48;6.65;;;1.27;;
43226;SDS011;28839;52.404;9.808;2023-03-14T06:09:42;5.70;;;1.30;;
43226;SDS011;28839;52.404;9.808;2023-03-14T06:16:37;8.15;;;1.58;;
43226;SDS011;28839;52.404;9.808;2023-03-14T06:23:31;4.45;;;1.55;;
43226;SDS011;28839;52.404;9.808;2023-03-14T06:30:25;4.00;;;1.20;;
43226;SDS011;28839;52.404;9.808;2023-03-14T06:37:20;8.10;;;2.03;;
43226;SDS011;28839;52.404;9.808;2023-03-14T06:44:14;5.60;;;1.02;;
43226;SDS011;28839;52.404;9.808;2023-03-14T06:51:08;5.50;;;1.30;;
43226;SDS011;28839;52.404;9.808;2023-03-14T06:58:03;6.32;;;1.20;;
43226;SDS011;28839;52.404;9.808;2023-03-14T07:04:59;8.15;;;2.03;;
43226;SDS011;28839;52.404;9.808;2023-03-14T07:11:52;10.65;;;0.75;;
43226;SDS011;28839;52.404;9.808;2023-03-14T07:18:47;2.60;;;0.80;;
43226;SDS011;28839;52.404;9.808;2023-03-14T07:25:42;1.60;;;0.65;;
43226;SDS011;28839;52.404;9.808;2023-03-14T07:32:36;1.62;;;0.62;;
43226;SDS011;28839;52.404;9.808;2023-03-14T07:39:31;4.43;;;1.10;;
43226;SDS011;28839;52.404;9.808;2023-03-14T07:46:25;0.70;;;0.47;;
43226;SDS011;28839;52.404;9.808;2023-03-14T07:53:18;2.08;;;0.50;;
43226;SDS011;28839;52.404;9.808;2023-03-14T08:00:15;0.90;;;0.40;;
43226;SDS011;28839;52.404;9.808;2023-03-14T08:07:09;1.75;;;0.70;;
43226;SDS011;28839;52.404;9.808;2023-03-14T08:14:03;0.45;;;0.25;;
43226;SDS011;28839;52.404;9.808;2023-03-14T08:20:58;2.10;;;0.40;;
43226;SDS011;28839;52.404;9.808;2023-03-14T08:27:52;0.65;;;0.30;;
43226;SDS011;28839;52.404;9.808;2023-03-14T08:34:47;0.32;;;0.32;;
43226;SDS011;28839;52.404;9.808;2023-03-14T08:41:42;0.37;;;0.30;;
43226;SDS011;28839;52.404;9.808;2023-03-14T08:48:36;2.10;;;0.40;;
43226;SDS011;28839;52.404;9.808;2023-03-14T08:55:30;0.30;;;0.30;;
43226;SDS011;28839;52.404;9.808;2023-03-14T09:02:25;1.87;;;0.57;;
43226;SDS011;28839;52.404;9.808;2023-03-14T09:09:20;2.92;;;0.50;;
43226;SDS011;28839;52.404;9.808;2023-03-14T09:16:14;0.47;;;0.30;;
43226;SDS011;28839;52.404;9.808;2023-03-14T09:23:09;1.02;;;0.50;;
43226;SDS011;28839;52.404;9.808;2023-03-14T09:30:03;2.70;;;0.60;;
43226;SDS011;28839;52.404;9.808;2023-03-14T09:36:58;2.85;;;0.80;;
43226;SDS011;28839;52.404;9.808;2023-03-14T09:43:56;3.42;;;0.93;;
43226;SDS011;28839;52.404;9.808;2023-03-14T09:50:56;1.40;;;0.70;;
43226;SDS011;28839;52.404;9.808;2023-03-14T09:57:54;1.55;;;0.70;;
43226;SDS011;28839;52.404;9.808;2023-03-14T10:04:52;1.27;;;0.80;;
43226;SDS011;28839;52.404;9.808;2023-03-14T10:11:47;1.20;;;0.90;;
43226;SDS011;28839;52.404;9.808;2023-03-14T10:18:43;1.48;;;0.90;;
43226;SDS011;28839;52.404;9.808;2023-03-14T10:25:40;1.42;;;0.80;;
43226;SDS011;28839;52.404;9.808;2023-03-14T10:32:37;3.20;;;0.90;;
43226;SDS011;28839;52.404;9.808;2023-03-14T10:39:37;2.42;;;0.98;;
43226;SDS011;28839;52.404;9.808;2023-03-14T10:46:36;1.25;;;1.00;;
43226;SDS011;28839;52.404;9.808;2023-03-14T10:53:34;1.10;;;1.00;;
43226;SDS011;28839;52.404;9.808;2023-03-14T11:00:34;1.65;;;0.98;;
43226;SDS011;28839;52.404;9.808;2023-03-14T11:07:29;1.97;;;1.50;;
43226;SDS011;28839;52.404;9.808;2023-03-14T11:14:29;5.37;;;1.92;;
43226;SDS011;28839;52.404;9.808;2023-03-14T11:21:30;5.70;;;2.42;;
43226;SDS011;28839;52.404;9.808;2023-03-14T11:28:32;2.25;;;1.40;;
43226;SDS011;28839;52.404;9.808;2023-03-14T11:35:31;1.77;;;0.60;;
43226;SDS011;28839;52.404;9.808;2023-03-14T11:42:30;1.73;;;1.10;;
43226;SDS011;28839;52.404;9.808;2023-03-14T11:49:30;3.65;;;1.45;;
43226;SDS011;28839;52.404;9.808;2023-03-14T11:56:33;3.80;;;1.07;;
43226;SDS011;28839;52.404;9.808;2023-03-14T12:03:31;1.30;;;0.40;;
43226;SDS011;28839;52.404;9.808;2023-03-14T12:10:37;2.47;;;0.43;;
43226;SDS011;28839;52.404;9.808;2023-03-14T12:17:34;0.60;;;0.40;;
43226;SDS011;28839;52.404;9.808;2023-03-14T12:24:29;2.62;;;0.35;;
43226;SDS011;28839;52.404;9.808;2023-03-14T12:31:37;1.42;;;0.30;;
43226;SDS011;28839;52.404;9.808;2023-03-14T12:38:39;0.65;;;0.47;;
43226;SDS011;28839;52.404;9.808;2023-03-14T12:45:40;2.65;;;0.70;;
43226;SDS011;28839;52.404;9.808;2023-03-14T12:52:36;4.37;;;1.90;;
43226;SDS011;28839;52.404;9.808;2023-03-14T12:59:40;2.47;;;0.75;;
43226;SDS011;28839;52.404;9.808;2023-03-14T13:06:48;8.68;;;1.52;;
43226;SDS011;28839;52.404;9.808;2023-03-14T13:20:44;11.43;;;2.00;;
43226;SDS011;28839;52.404;9.808;2023-03-14T13:27:41;4.87;;;1.40;;
43226;SDS011;28839;52.404;9.808;2023-03-14T13:34:36;8.48;;;1.48;;
43226;SDS011;28839;52.404;9.808;2023-03-14T13:41:30;6.55;;;2.50;;
43226;SDS011;28839;52.404;9.808;2023-03-14T13:48:26;12.40;;;2.05;;
43226;SDS011;28839;52.404;9.808;2023-03-14T13:55:23;9.18;;;2.22;;
43226;SDS011;28839;52.404;9.808;2023-03-14T14:02:16;7.30;;;1.35;;
43226;SDS011;28839;52.404;9.808;2023-03-14T14:09:19;8.95;;;2.53;;
43226;SDS011;28839;52.404;9.808;2023-03-14T14:16:19;12.43;;;2.37;;
43226;SDS011;28839;52.404;9.808;2023-03-14T14:23:18;7.57;;;1.92;;
43226;SDS011;28839;52.404;9.808;2023-03-14T14:30:30;13.52;;;2.67;;
43226;SDS011;28839;52.404;9.808;2023-03-14T14:37:27;11.12;;;2.25;;
43226;SDS011;28839;52.404;9.808;2023-03-14T14:44:25;14.95;;;4.10;;
43226;SDS011;28839;52.404;9.808;2023-03-14T14:51:24;14.90;;;2.87;;
43226;SDS011;28839;52.404;9.808;2023-03-14T14:58:25;11.25;;;2.42;;
43226;SDS011;28839;52.404;9.808;2023-03-14T15:05:22;11.40;;;2.28;;
43226;SDS011;28839;52.404;9.808;2023-03-14T15:12:17;19.02;;;5.15;;
43226;SDS011;28839;52.404;9.808;2023-03-14T15:26:10;8.20;;;3.08;;
43226;SDS011;28839;52.404;9.808;2023-03-14T15:33:06;13.65;;;3.45;;
43226;SDS011;28839;52.404;9.808;2023-03-14T15:40:03;7.22;;;1.55;;
43226;SDS011;28839;52.404;9.808;2023-03-14T15:47:03;12.27;;;2.55;;
43226;SDS011;28839;52.404;9.808;2023-03-14T15:53:58;11.57;;;2.90;;
43226;SDS011;28839;52.404;9.808;2023-03-14T16:00:53;10.15;;;1.70;;
43226;SDS011;28839;52.404;9.808;2023-03-14T16:14:41;13.60;;;3.15;;
43226;SDS011;28839;52.404;9.808;2023-03-14T16:21:36;18.42;;;2.58;;
43226;SDS011;28839;52.404;9.808;2023-03-14T16:35:24;11.77;;;3.05;;
43226;SDS011;28839;52.404;9.808;2023-03-14T16:42:19;5.60;;;1.90;;
43226;SDS011;28839;52.404;9.808;2023-03-14T16:49:14;10.43;;;2.00;;
43226;SDS011;28839;52.404;9.808;2023-03-14T16:56:08;10.18;;;2.37;;
43226;SDS011;28839;52.404;9.808;2023-03-14T17:03:03;20.58;;;7.32;;
43226;SDS011;28839;52.404;9.808;2023-03-14T17:09:57;10.23;;;2.80;;
43226;SDS011;28839;52.404;9.808;2023-03-14T17:16:51;12.48;;;3.90;;
43226;SDS011;28839;52.404;9.808;2023-03-14T17:23:46;9.05;;;2.37;;
43226;SDS011;28839;52.404;9.808;2023-03-14T17:30:40;18.17;;;2.80;;
43226;SDS011;28839;52.404;9.808;2023-03-14T17:37:34;15.68;;;3.58;;
43226;SDS011;28839;52.404;9.808;2023-03-14T17:44:29;12.70;;;2.92;;
43226;SDS011;28839;52.404;9.808;2023-03-14T17:51:23;11.93;;;2.42;;
43226;SDS011;28839;52.404;9.808;2023-03-14T17:58:17;12.55;;;3.00;;
43226;SDS011;28839;52.404;9.808;2023-03-14T18:05:12;8.80;;;3.62;;
43226;SDS011;28839;52.404;9.808;2023-03-14T18:12:06;12.13;;;2.55;;
43226;SDS011;28839;52.404;9.808;2023-03-14T18:19:00;15.90;;;2.50;;
43226;SDS011;28839;52.404;9.808;2023-03-14T18:25:56;16.90;;;4.00;;
43226;SDS011;28839;52.404;9.808;2023-03-14T18:32:50;13.65;;;3.35;;
43226;SDS011;28839;52.404;9.808;2023-03-14T18:39:44;13.00;;;3.50;;
43226;SDS011;28839;52.404;9.808;2023-03-14T18:46:39;10.43;;;2.90;;
43226;SDS011;28839;52.404;9.808;2023-03-14T18:53:34;12.43;;;3.67;;
43226;SDS011;28839;52.404;9.808;2023-03-14T19:07:24;12.73;;;2.35;;
43226;SDS011;28839;52.404;9.808;2023-03-14T19:14:18;8.13;;;3.05;;
43226;SDS011;28839;52.404;9.808;2023-03-14T19:21:12;13.20;;;4.20;;
43226;SDS011;28839;52.404;9.808;2023-03-14T19:28:07;7.78;;;2.87;;
43226;SDS011;28839;52.404;9.808;2023-03-14T19:35:01;11.52;;;2.70;;
43226;SDS011;28839;52.404;9.808;2023-03-14T19:41:56;13.47;;;2.73;;
43226;SDS011;28839;52.404;9.808;2023-03-14T19:48:51;13.90;;;2.53;;
43226;SDS011;28839;52.404;9.808;2023-03-14T19:55:46;16.45;;;4.32;;
43226;SDS011;28839;52.404;9.808;2023-03-14T20:09:36;19.17;;;5.78;;
43226;SDS011;28839;52.404;9.808;2023-03-14T20:16:30;14.52;;;2.20;;
43226;SDS011;28839;52.404;9.808;2023-03-14T20:23:27;12.55;;;3.10;;
43226;SDS011;28839;52.404;9.808;2023-03-14T20:30:23;10.65;;;2.42;;
43226;SDS011;28839;52.404;9.808;2023-03-14T20:37:17;10.65;;;3.08;;
43226;SDS011;28839;52.404;9.808;2023-03-14T20:44:11;13.40;;;2.80;;
43226;SDS011;28839;52.404;9.808;2023-03-14T20:51:06;11.57;;;3.20;;
43226;SDS011;28839;52.404;9.808;2023-03-14T20:58:00;18.77;;;2.92;;
43226;SDS011;28839;52.404;9.808;2023-03-14T21:04:55;13.00;;;2.12;;
43226;SDS011;28839;52.404;9.808;2023-03-14T21:11:51;9.25;;;3.15;;
43226;SDS011;28839;52.404;9.808;2023-03-14T21:18:45;7.25;;;1.67;;
43226;SDS011;28839;52.404;9.808;2023-03-14T21:25:39;8.70;;;2.05;;
43226;SDS011;28839;52.404;9.808;2023-03-14T21:32:35;9.10;;;1.90;;
43226;SDS011;28839;52.404;9.808;2023-03-14T21:39:29;12.77;;;2.50;;
43226;SDS011;28839;52.404;9.808;2023-03-14T21:46:23;7.83;;;1.60;;
43226;SDS011;28839;52.404;9.808;2023-03-14T21:53:18;15.40;;;4.97;;
43226;SDS011;28839;52.404;9.808;2023-03-14T22:00:14;12.75;;;2.33;;
43226;SDS011;28839;52.404;9.808;2023-03-14T22:07:09;9.05;;;1.73;;
43226;SDS011;28839;52.404;9.808;2023-03-14T22:14:06;11.45;;;2.33;;
43226;SDS011;28839;52.404;9.808;2023-03-14T22:21:00;9.90;;;1.95;;
43226;SDS011;28839;52.404;9.808;2023-03-14T22:27:53;8.40;;;2.15;;
43226;SDS011;28839;52.404;9.808;2023-03-14T22:34:49;6.95;;;2.15;;
43226;SDS011;28839;52.404;9.808;2023-03-14T22:41:42;11.32;;;4.28;;
43226;SDS011;28839;52.404;9.808;2023-03-14T22:48:36;10.60;;;2.08;;
43226;SDS011;28839;52.404;9.808;2023-03-14T22:55:31;7.72;;;1.90;;
43226;SDS011;28839;52.404;9.808;2023-03-14T23:02:25;11.82;;;1.80;;
43226;SDS011;28839;52.404;9.808;2023-03-14T23:09:19;8.20;;;1.65;;
43226;SDS011;28839;52.404;9.808;2023-03-14T23:16:14;8.63;;;1.75;;
43226;SDS011;28839;52.404;9.808;2023-03-14T23:23:09;17.58;;;3.45;;
43226;SDS011;28839;52.404;9.808;2023-03-14T23:30:05;15.63;;;4.47;;
43226;SDS011;28839;52.404;9.808;2023-03-14T23:37:00;6.18;;;2.08;;
43226;SDS011;28839;52.404;9.808;2023-03-14T23:43:54;10.23;;;1.90;;
43226;SDS011;28839;52.404;9.808;2023-03-14T23:50:52;11.95;;;2.95;;
43226;SDS011;28839;52.404;9.808;2023-03-14T23:57:47;8.95;;;1.60;;
